PWSweather.com
Personal Weather Stations
Station Observations
LOBIOS
Galicia, LobiosES

GaliciaLobiosES

Lat: 41.895, Lon: -8.091667

Elevation: 1597

Station Type: Automática/Davis Vantage Pro2 Plus

www.meteolobios.es

High Low Average
Temperature 49.7°F9.8°C 39.6°F4.2°C 44.4°F6.9°C
Dew Point 43.8°F6.6°C 37.5°F3.1°C 40.6°F4.8°C
Winds 16.1 mph 25.9 kmh Calm Calm 6.0 mph NE9.7 kmh NE
Wind Gusts 21.9 mph35.2 kmh -- 8.0 mph12.9 kmh
Humidity 94% 75% 87%
Pressure 30.64 in1037.6 mb 30.57 in1035.2 mb -
Precipitation 0.02 in0.5 mm - -
Hour Temp Dew Point Humidity Winds Wind Gusts Pressure Precip Precip Rate Daily Precip Total
12:00 AM 42.1°F5.6°C 38.2°F3.4°C 86% Calm Calm -- 30.58 in1035.6 mb - 0.00 in0.0 mm 0.00 in0.0 mm
12:10 AM 42.1°F5.6°C 38.2°F3.4°C 86% Calm Calm -- 30.59 in1035.9 mb - 0.00 in0.0 mm 0.00 in0.0 mm
12:20 AM 42.1°F5.6°C 38.2°F3.4°C 86% Calm Calm 1.1 mph1.8 kmh 30.59 in1035.9 mb - 0.00 in0.0 mm 0.00 in0.0 mm
12:30 AM 42.1°F5.6°C 38.2°F3.4°C 86% Calm Calm -- 30.59 in1035.9 mb - 0.00 in0.0 mm 0.00 in0.0 mm
12:40 AM 42.1°F5.6°C 38.2°F3.4°C 86% Calm Calm -- 30.59 in1035.9 mb - 0.00 in0.0 mm 0.00 in0.0 mm
12:50 AM 42.1°F5.6°C 38.2°F3.4°C 86% Calm Calm -- 30.59 in1035.9 mb - 0.00 in0.0 mm 0.00 in0.0 mm
01:00 AM 42.1°F5.6°C 38.2°F3.4°C 86% Calm Calm -- 30.59 in1035.9 mb - 0.00 in0.0 mm 0.00 in0.0 mm
01:10 AM 42.1°F5.6°C 38.2°F3.4°C 86% Calm Calm -- 30.59 in1035.9 mb - 0.00 in0.0 mm 0.00 in0.0 mm
01:20 AM 42.1°F5.6°C 38.2°F3.4°C 86% Calm Calm -- 30.59 in1035.9 mb - 0.00 in0.0 mm 0.00 in0.0 mm
01:30 AM 41.9°F5.5°C 38.0°F3.3°C 86% 3.5 mph ENE5.6 kmh ENE 4.6 mph7.4 kmh 30.60 in1036.2 mb - 0.00 in0.0 mm 0.00 in0.0 mm
01:40 AM 42.0°F5.6°C 38.1°F3.4°C 86% Calm Calm 1.1 mph1.8 kmh 30.59 in1035.9 mb - 0.00 in0.0 mm 0.00 in0.0 mm
01:50 AM 42.0°F5.6°C 38.1°F3.4°C 86% Calm Calm 1.1 mph1.8 kmh 30.59 in1035.9 mb - 0.00 in0.0 mm 0.00 in0.0 mm
02:00 AM 42.0°F5.6°C 38.5°F3.6°C 87% 2.3 mph ENE3.7 kmh ENE 3.5 mph5.6 kmh 30.59 in1035.9 mb - 0.00 in0.0 mm 0.00 in0.0 mm
02:10 AM 42.1°F5.6°C 38.5°F3.6°C 87% 1.1 mph ENE1.8 kmh ENE 3.5 mph5.6 kmh 30.59 in1035.9 mb - 0.00 in0.0 mm 0.00 in0.0 mm
02:20 AM 42.1°F5.6°C 38.5°F3.6°C 87% 3.5 mph NE5.6 kmh NE 5.8 mph9.3 kmh 30.59 in1035.9 mb - 0.00 in0.0 mm 0.00 in0.0 mm
02:30 AM 41.9°F5.5°C 38.6°F3.7°C 88% 4.6 mph ENE7.4 kmh ENE 5.8 mph9.3 kmh 30.59 in1035.9 mb - 0.00 in0.0 mm 0.00 in0.0 mm
02:40 AM 41.8°F5.4°C 38.5°F3.6°C 88% 4.6 mph ENE7.4 kmh ENE 5.8 mph9.3 kmh 30.58 in1035.6 mb - 0.01 in0.3 mm 0.01 in0.3 mm
02:50 AM 41.6°F5.3°C 38.3°F3.5°C 88% 1.1 mph ENE1.8 kmh ENE 3.5 mph5.6 kmh 30.58 in1035.6 mb - 0.00 in0.0 mm 0.01 in0.3 mm
03:00 AM 41.4°F5.2°C 38.4°F3.6°C 89% 3.5 mph ENE5.6 kmh ENE 4.6 mph7.4 kmh 30.59 in1035.9 mb - 0.00 in0.0 mm 0.01 in0.3 mm
03:10 AM 41.2°F5.1°C 38.3°F3.5°C 89% 1.1 mph ENE1.8 kmh ENE 3.5 mph5.6 kmh 30.58 in1035.6 mb - 0.00 in0.0 mm 0.01 in0.3 mm
03:20 AM 41.1°F5.1°C 38.1°F3.4°C 89% 1.1 mph ENE1.8 kmh ENE 2.3 mph3.7 kmh 30.59 in1035.9 mb - 0.00 in0.0 mm 0.01 in0.3 mm
03:30 AM 41.0°F5.0°C 38.3°F3.5°C 90% 2.3 mph ENE3.7 kmh ENE 3.5 mph5.6 kmh 30.59 in1035.9 mb - 0.00 in0.0 mm 0.01 in0.3 mm
03:40 AM 41.0°F5.0°C 38.3°F3.5°C 90% 1.1 mph ENE1.8 kmh ENE 2.3 mph3.7 kmh 30.59 in1035.9 mb - 0.00 in0.0 mm 0.01 in0.3 mm
03:50 AM 40.9°F4.9°C 38.2°F3.4°C 90% 1.1 mph ENE1.8 kmh ENE 2.3 mph3.7 kmh 30.60 in1036.2 mb - 0.00 in0.0 mm 0.01 in0.3 mm
04:00 AM 40.8°F4.9°C 38.1°F3.4°C 90% Calm Calm -- 30.58 in1035.6 mb - 0.00 in0.0 mm 0.01 in0.3 mm
04:10 AM 40.7°F4.8°C 38.0°F3.3°C 90% 2.3 mph ENE3.7 kmh ENE 4.6 mph7.4 kmh 30.58 in1035.6 mb - 0.00 in0.0 mm 0.01 in0.3 mm
04:20 AM 40.6°F4.8°C 38.2°F3.4°C 91% 2.3 mph ENE3.7 kmh ENE 3.5 mph5.6 kmh 30.58 in1035.6 mb - 0.00 in0.0 mm 0.01 in0.3 mm
04:30 AM 40.4°F4.7°C 38.0°F3.3°C 91% 1.1 mph ENE1.8 kmh ENE 2.3 mph3.7 kmh 30.58 in1035.6 mb - 0.00 in0.0 mm 0.01 in0.3 mm
04:40 AM 40.2°F4.6°C 37.8°F3.2°C 91% 1.1 mph ENE1.8 kmh ENE 3.5 mph5.6 kmh 30.58 in1035.6 mb - 0.00 in0.0 mm 0.01 in0.3 mm
04:50 AM 40.1°F4.5°C 37.6°F3.1°C 91% 2.3 mph ENE3.7 kmh ENE 3.5 mph5.6 kmh 30.57 in1035.2 mb - 0.00 in0.0 mm 0.01 in0.3 mm
05:00 AM 39.9°F4.4°C 37.5°F3.1°C 91% 2.3 mph ENE3.7 kmh ENE 4.6 mph7.4 kmh 30.57 in1035.2 mb - 0.00 in0.0 mm 0.01 in0.3 mm
05:10 AM 39.9°F4.4°C 37.8°F3.2°C 92% Calm Calm 2.3 mph3.7 kmh 30.57 in1035.2 mb - 0.00 in0.0 mm 0.01 in0.3 mm
05:20 AM 39.9°F4.4°C 37.8°F3.2°C 92% 1.1 mph ENE1.8 kmh ENE 3.5 mph5.6 kmh 30.58 in1035.6 mb - 0.00 in0.0 mm 0.01 in0.3 mm
05:30 AM 39.9°F4.4°C 37.8°F3.2°C 92% Calm Calm -- 30.57 in1035.2 mb - 0.00 in0.0 mm 0.01 in0.3 mm
05:40 AM 39.8°F4.3°C 37.7°F3.2°C 92% 1.1 mph ENE1.8 kmh ENE 3.5 mph5.6 kmh 30.58 in1035.6 mb - 0.00 in0.0 mm 0.01 in0.3 mm
05:50 AM 39.8°F4.3°C 37.7°F3.2°C 92% 2.3 mph ENE3.7 kmh ENE 5.8 mph9.3 kmh 30.57 in1035.2 mb - 0.00 in0.0 mm 0.01 in0.3 mm
06:00 AM 39.8°F4.3°C 37.7°F3.2°C 92% 2.3 mph ENE3.7 kmh ENE 3.5 mph5.6 kmh 30.57 in1035.2 mb - 0.00 in0.0 mm 0.01 in0.3 mm
06:10 AM 39.7°F4.3°C 37.6°F3.1°C 92% 2.3 mph ENE3.7 kmh ENE 4.6 mph7.4 kmh 30.57 in1035.2 mb - 0.00 in0.0 mm 0.01 in0.3 mm
06:20 AM 39.6°F4.2°C 37.5°F3.1°C 92% 2.3 mph ENE3.7 kmh ENE 3.5 mph5.6 kmh 30.58 in1035.6 mb - 0.00 in0.0 mm 0.01 in0.3 mm
06:30 AM 39.7°F4.3°C 37.8°F3.2°C 93% 1.1 mph ENE1.8 kmh ENE 3.5 mph5.6 kmh 30.58 in1035.6 mb - 0.00 in0.0 mm 0.01 in0.3 mm
06:40 AM 39.9°F4.4°C 38.0°F3.3°C 93% 5.8 mph NE9.3 kmh NE 6.9 mph11.1 kmh 30.58 in1035.6 mb - 0.00 in0.0 mm 0.01 in0.3 mm
06:50 AM 40.0°F4.4°C 38.2°F3.4°C 93% 4.6 mph NE7.4 kmh NE 5.8 mph9.3 kmh 30.59 in1035.9 mb - 0.01 in0.3 mm 0.02 in0.5 mm
07:00 AM 40.0°F4.4°C 38.1°F3.4°C 93% 4.6 mph ENE7.4 kmh ENE 5.8 mph9.3 kmh 30.59 in1035.9 mb - 0.00 in0.0 mm 0.02 in0.5 mm
07:10 AM 39.9°F4.4°C 38.0°F3.3°C 93% 4.6 mph E7.4 kmh E 6.9 mph11.1 kmh 30.59 in1035.9 mb - 0.00 in0.0 mm 0.02 in0.5 mm
07:20 AM 40.1°F4.5°C 38.2°F3.4°C 93% 3.5 mph E5.6 kmh E 3.5 mph5.6 kmh 30.58 in1035.6 mb - 0.00 in0.0 mm 0.02 in0.5 mm
07:30 AM 40.3°F4.6°C 38.7°F3.7°C 94% 2.3 mph NE3.7 kmh NE 3.5 mph5.6 kmh 30.58 in1035.6 mb - 0.00 in0.0 mm 0.02 in0.5 mm
07:40 AM 40.3°F4.6°C 38.5°F3.6°C 93% 5.8 mph ENE9.3 kmh ENE 8.1 mph13.0 kmh 30.59 in1035.9 mb - 0.00 in0.0 mm 0.02 in0.5 mm
07:50 AM 40.4°F4.7°C 38.8°F3.8°C 94% 5.8 mph NE9.3 kmh NE 6.9 mph11.1 kmh 30.59 in1035.9 mb - 0.00 in0.0 mm 0.02 in0.5 mm
08:00 AM 40.5°F4.7°C 38.9°F3.8°C 94% 4.6 mph NE7.4 kmh NE 6.9 mph11.1 kmh 30.59 in1035.9 mb - 0.00 in0.0 mm 0.02 in0.5 mm
08:10 AM 40.6°F4.8°C 38.7°F3.7°C 93% 5.8 mph NE9.3 kmh NE 8.1 mph13.0 kmh 30.59 in1035.9 mb - 0.00 in0.0 mm 0.02 in0.5 mm
08:20 AM 40.7°F4.8°C 38.8°F3.8°C 93% 5.8 mph NE9.3 kmh NE 6.9 mph11.1 kmh 30.60 in1036.2 mb - 0.00 in0.0 mm 0.02 in0.5 mm
08:30 AM 40.8°F4.9°C 38.9°F3.8°C 93% 2.3 mph NE3.7 kmh NE 3.5 mph5.6 kmh 30.60 in1036.2 mb - 0.00 in0.0 mm 0.02 in0.5 mm
08:40 AM 40.8°F4.9°C 38.9°F3.8°C 93% 2.3 mph NE3.7 kmh NE 3.5 mph5.6 kmh 30.60 in1036.2 mb - 0.00 in0.0 mm 0.02 in0.5 mm
08:50 AM 40.9°F4.9°C 39.0°F3.9°C 93% 1.1 mph NE1.8 kmh NE 2.3 mph3.7 kmh 30.61 in1036.6 mb - 0.00 in0.0 mm 0.02 in0.5 mm
09:00 AM 40.9°F4.9°C 39.0°F3.9°C 93% 3.5 mph NE5.6 kmh NE 4.6 mph7.4 kmh 30.61 in1036.6 mb - 0.00 in0.0 mm 0.02 in0.5 mm
09:10 AM 40.9°F4.9°C 39.0°F3.9°C 93% 4.6 mph NE7.4 kmh NE 4.6 mph7.4 kmh 30.61 in1036.6 mb - 0.00 in0.0 mm 0.02 in0.5 mm
09:20 AM 41.0°F5.0°C 39.1°F3.9°C 93% 4.6 mph NE7.4 kmh NE 4.6 mph7.4 kmh 30.61 in1036.6 mb - 0.00 in0.0 mm 0.02 in0.5 mm
09:30 AM 41.0°F5.0°C 39.1°F3.9°C 93% 4.6 mph NE7.4 kmh NE 5.8 mph9.3 kmh 30.61 in1036.6 mb - 0.00 in0.0 mm 0.02 in0.5 mm
09:40 AM 41.1°F5.1°C 39.2°F4.0°C 93% 4.6 mph NE7.4 kmh NE 5.8 mph9.3 kmh 30.62 in1036.9 mb - 0.00 in0.0 mm 0.02 in0.5 mm
09:50 AM 41.2°F5.1°C 39.3°F4.1°C 93% 5.8 mph NE9.3 kmh NE 5.8 mph9.3 kmh 30.62 in1036.9 mb - 0.00 in0.0 mm 0.02 in0.5 mm
10:00 AM 41.5°F5.3°C 39.6°F4.2°C 93% 3.5 mph NE5.6 kmh NE 4.6 mph7.4 kmh 30.63 in1037.3 mb - 0.00 in0.0 mm 0.02 in0.5 mm
10:10 AM 41.6°F5.3°C 39.8°F4.3°C 93% 4.6 mph NE7.4 kmh NE 4.6 mph7.4 kmh 30.63 in1037.3 mb - 0.00 in0.0 mm 0.02 in0.5 mm
10:20 AM 41.9°F5.5°C 40.0°F4.4°C 93% 3.5 mph NE5.6 kmh NE 4.6 mph7.4 kmh 30.63 in1037.3 mb - 0.00 in0.0 mm 0.02 in0.5 mm
10:30 AM 42.2°F5.7°C 40.6°F4.8°C 94% 4.6 mph NE7.4 kmh NE 6.9 mph11.1 kmh 30.63 in1037.3 mb - 0.00 in0.0 mm 0.02 in0.5 mm
10:40 AM 42.6°F5.9°C 40.7°F4.8°C 93% 3.5 mph NE5.6 kmh NE 4.6 mph7.4 kmh 30.62 in1036.9 mb - 0.00 in0.0 mm 0.02 in0.5 mm
10:50 AM 43.1°F6.2°C 40.9°F4.9°C 92% 5.8 mph NE9.3 kmh NE 6.9 mph11.1 kmh 30.62 in1036.9 mb - 0.00 in0.0 mm 0.02 in0.5 mm
11:00 AM 43.6°F6.4°C 41.5°F5.3°C 92% 5.8 mph NE9.3 kmh NE 6.9 mph11.1 kmh 30.62 in1036.9 mb - 0.00 in0.0 mm 0.02 in0.5 mm
11:10 AM 44.2°F6.8°C 41.7°F5.4°C 91% 6.9 mph ENE11.1 kmh ENE 8.1 mph13.0 kmh 30.63 in1037.3 mb - 0.00 in0.0 mm 0.02 in0.5 mm
11:20 AM 44.4°F6.9°C 41.7°F5.4°C 90% 5.8 mph NE9.3 kmh NE 10.4 mph16.7 kmh 30.63 in1037.3 mb - 0.00 in0.0 mm 0.02 in0.5 mm
11:30 AM 44.5°F6.9°C 41.5°F5.3°C 89% 5.8 mph NE9.3 kmh NE 9.2 mph14.8 kmh 30.63 in1037.3 mb - 0.00 in0.0 mm 0.02 in0.5 mm
11:40 AM 44.9°F7.2°C 41.5°F5.3°C 88% 9.2 mph NE14.8 kmh NE 11.5 mph18.5 kmh 30.64 in1037.6 mb - 0.00 in0.0 mm 0.02 in0.5 mm
11:50 AM 45.1°F7.3°C 41.5°F5.3°C 87% 9.2 mph NE14.8 kmh NE 13.8 mph22.2 kmh 30.63 in1037.3 mb - 0.00 in0.0 mm 0.02 in0.5 mm
12:00 PM 45.2°F7.3°C 41.3°F5.2°C 86% 12.7 mph ENE20.4 kmh ENE 18.4 mph29.6 kmh 30.63 in1037.3 mb - 0.00 in0.0 mm 0.02 in0.5 mm
12:10 PM 45.5°F7.5°C 41.6°F5.3°C 86% 10.4 mph NE16.7 kmh NE 11.5 mph18.5 kmh 30.63 in1037.3 mb - 0.00 in0.0 mm 0.02 in0.5 mm
12:20 PM 45.8°F7.7°C 41.5°F5.3°C 85% 10.4 mph NE16.7 kmh NE 13.8 mph22.2 kmh 30.63 in1037.3 mb - 0.00 in0.0 mm 0.02 in0.5 mm
12:30 PM 46.2°F7.9°C 41.9°F5.5°C 85% 11.5 mph NE18.5 kmh NE 15.0 mph24.1 kmh 30.63 in1037.3 mb - 0.00 in0.0 mm 0.02 in0.5 mm
12:40 PM 46.7°F8.2°C 42.1°F5.6°C 84% 10.4 mph ENE16.7 kmh ENE 12.7 mph20.4 kmh 30.63 in1037.3 mb - 0.00 in0.0 mm 0.02 in0.5 mm
12:50 PM 47.1°F8.4°C 42.2°F5.7°C 83% 9.2 mph ENE14.8 kmh ENE 11.5 mph18.5 kmh 30.62 in1036.9 mb - 0.00 in0.0 mm 0.02 in0.5 mm
01:00 PM 47.3°F8.5°C 42.1°F5.6°C 82% 15.0 mph NE24.1 kmh NE 19.6 mph31.5 kmh 30.62 in1036.9 mb - 0.00 in0.0 mm 0.02 in0.5 mm
01:10 PM 47.3°F8.5°C 41.4°F5.2°C 80% 12.7 mph NE20.4 kmh NE 18.4 mph29.6 kmh 30.62 in1036.9 mb - 0.00 in0.0 mm 0.02 in0.5 mm
01:20 PM 47.6°F8.7°C 41.7°F5.4°C 80% 10.4 mph NE16.7 kmh NE 11.5 mph18.5 kmh 30.62 in1036.9 mb - 0.00 in0.0 mm 0.02 in0.5 mm
01:30 PM 47.9°F8.8°C 41.4°F5.2°C 78% 16.1 mph NE25.9 kmh NE 20.7 mph33.3 kmh 30.62 in1036.9 mb - 0.00 in0.0 mm 0.02 in0.5 mm
01:40 PM 47.7°F8.7°C 41.1°F5.1°C 78% 10.4 mph NE16.7 kmh NE 11.5 mph18.5 kmh 30.62 in1036.9 mb - 0.00 in0.0 mm 0.02 in0.5 mm
01:50 PM 47.6°F8.7°C 41.1°F5.1°C 78% 10.4 mph NE16.7 kmh NE 11.5 mph18.5 kmh 30.62 in1036.9 mb - 0.00 in0.0 mm 0.02 in0.5 mm
02:00 PM 47.5°F8.6°C 41.3°F5.2°C 79% 11.5 mph NE18.5 kmh NE 15.0 mph24.1 kmh 30.61 in1036.6 mb - 0.00 in0.0 mm 0.02 in0.5 mm
02:10 PM 47.6°F8.7°C 41.1°F5.1°C 78% 12.7 mph NE20.4 kmh NE 13.8 mph22.2 kmh 30.61 in1036.6 mb - 0.00 in0.0 mm 0.02 in0.5 mm
02:20 PM 47.7°F8.7°C 41.5°F5.3°C 79% 11.5 mph NE18.5 kmh NE 19.6 mph31.5 kmh 30.61 in1036.6 mb - 0.00 in0.0 mm 0.02 in0.5 mm
02:30 PM 47.7°F8.7°C 41.8°F5.4°C 80% 11.5 mph NE18.5 kmh NE 13.8 mph22.2 kmh 30.60 in1036.2 mb - 0.00 in0.0 mm 0.02 in0.5 mm
02:40 PM 48.0°F8.9°C 41.8°F5.4°C 79% 15.0 mph NE24.1 kmh NE 16.1 mph25.9 kmh 30.60 in1036.2 mb - 0.00 in0.0 mm 0.02 in0.5 mm
02:50 PM 48.0°F8.9°C 42.1°F5.6°C 80% 11.5 mph NE18.5 kmh NE 13.8 mph22.2 kmh 30.60 in1036.2 mb - 0.00 in0.0 mm 0.02 in0.5 mm
03:00 PM 48.5°F9.2°C 42.7°F5.9°C 80% 9.2 mph NE14.8 kmh NE 10.4 mph16.7 kmh 30.59 in1035.9 mb - 0.00 in0.0 mm 0.02 in0.5 mm
03:10 PM 49.1°F9.5°C 42.5°F5.8°C 78% 16.1 mph NE25.9 kmh NE 19.6 mph31.5 kmh 30.59 in1035.9 mb - 0.00 in0.0 mm 0.02 in0.5 mm
03:20 PM 49.1°F9.5°C 42.2°F5.7°C 77% 16.1 mph NE25.9 kmh NE 21.9 mph35.2 kmh 30.59 in1035.9 mb - 0.00 in0.0 mm 0.02 in0.5 mm
03:30 PM 49.2°F9.6°C 42.3°F5.7°C 77% 10.4 mph NE16.7 kmh NE 18.4 mph29.6 kmh 30.59 in1035.9 mb - 0.00 in0.0 mm 0.02 in0.5 mm
03:40 PM 49.3°F9.6°C 42.4°F5.8°C 77% 12.7 mph NE20.4 kmh NE 16.1 mph25.9 kmh 30.59 in1035.9 mb - 0.00 in0.0 mm 0.02 in0.5 mm
03:50 PM 49.7°F9.8°C 42.8°F6.0°C 77% 10.4 mph NE16.7 kmh NE 11.5 mph18.5 kmh 30.59 in1035.9 mb - 0.00 in0.0 mm 0.02 in0.5 mm
04:00 PM 49.6°F9.8°C 42.0°F5.6°C 75% 12.7 mph NE20.4 kmh NE 16.1 mph25.9 kmh 30.59 in1035.9 mb - 0.00 in0.0 mm 0.02 in0.5 mm
04:10 PM 49.4°F9.7°C 42.1°F5.6°C 76% 11.5 mph NE18.5 kmh NE 11.5 mph18.5 kmh 30.59 in1035.9 mb - 0.00 in0.0 mm 0.02 in0.5 mm
04:20 PM 49.4°F9.7°C 42.5°F5.8°C 77% 8.1 mph NE13.0 kmh NE 11.5 mph18.5 kmh 30.58 in1035.6 mb - 0.00 in0.0 mm 0.02 in0.5 mm
04:30 PM 49.2°F9.6°C 42.6°F5.9°C 78% 10.4 mph NE16.7 kmh NE 12.7 mph20.4 kmh 30.58 in1035.6 mb - 0.00 in0.0 mm 0.02 in0.5 mm
04:40 PM 49.0°F9.4°C 42.8°F6.0°C 79% 10.4 mph NE16.7 kmh NE 12.7 mph20.4 kmh 30.59 in1035.9 mb - 0.00 in0.0 mm 0.02 in0.5 mm
04:50 PM 48.8°F9.3°C 42.6°F5.9°C 79% 9.2 mph NE14.8 kmh NE 12.7 mph20.4 kmh 30.58 in1035.6 mb - 0.00 in0.0 mm 0.02 in0.5 mm
05:00 PM 48.4°F9.1°C 42.5°F5.8°C 80% 11.5 mph NE18.5 kmh NE 15.0 mph24.1 kmh 30.59 in1035.9 mb - 0.00 in0.0 mm 0.02 in0.5 mm
05:10 PM 48.3°F9.1°C 42.4°F5.8°C 80% 10.4 mph ENE16.7 kmh ENE 12.7 mph20.4 kmh 30.58 in1035.6 mb - 0.00 in0.0 mm 0.02 in0.5 mm
05:20 PM 48.5°F9.2°C 42.9°F6.1°C 81% 12.7 mph NE20.4 kmh NE 16.1 mph25.9 kmh 30.59 in1035.9 mb - 0.00 in0.0 mm 0.02 in0.5 mm
05:30 PM 48.5°F9.2°C 42.9°F6.1°C 81% 5.8 mph ENE9.3 kmh ENE 9.2 mph14.8 kmh 30.58 in1035.6 mb - 0.00 in0.0 mm 0.02 in0.5 mm
05:40 PM 48.3°F9.1°C 42.7°F5.9°C 81% 10.4 mph ENE16.7 kmh ENE 13.8 mph22.2 kmh 30.59 in1035.9 mb - 0.00 in0.0 mm 0.02 in0.5 mm
05:50 PM 48.1°F8.9°C 42.5°F5.8°C 81% 8.1 mph ENE13.0 kmh ENE 11.5 mph18.5 kmh 30.59 in1035.9 mb - 0.00 in0.0 mm 0.02 in0.5 mm
06:00 PM 47.9°F8.8°C 42.7°F5.9°C 82% 6.9 mph NE11.1 kmh NE 9.2 mph14.8 kmh 30.59 in1035.9 mb - 0.00 in0.0 mm 0.02 in0.5 mm
06:10 PM 47.8°F8.8°C 42.6°F5.9°C 82% 11.5 mph ENE18.5 kmh ENE 13.8 mph22.2 kmh 30.59 in1035.9 mb - 0.00 in0.0 mm 0.02 in0.5 mm
06:20 PM 47.7°F8.7°C 42.5°F5.8°C 82% 12.7 mph ENE20.4 kmh ENE 15.0 mph24.1 kmh 30.59 in1035.9 mb - 0.00 in0.0 mm 0.02 in0.5 mm
06:30 PM 47.5°F8.6°C 42.6°F5.9°C 83% 13.8 mph ENE22.2 kmh ENE 18.4 mph29.6 kmh 30.59 in1035.9 mb - 0.00 in0.0 mm 0.02 in0.5 mm
06:40 PM 47.3°F8.5°C 42.4°F5.8°C 83% 13.8 mph ENE22.2 kmh ENE 20.7 mph33.3 kmh 30.59 in1035.9 mb - 0.00 in0.0 mm 0.02 in0.5 mm
06:50 PM 47.1°F8.4°C 42.5°F5.8°C 84% 11.5 mph E18.5 kmh E 13.8 mph22.2 kmh 30.59 in1035.9 mb - 0.00 in0.0 mm 0.02 in0.5 mm
07:00 PM 47.0°F8.3°C 42.4°F5.8°C 84% 9.2 mph NE14.8 kmh NE 11.5 mph18.5 kmh 30.59 in1035.9 mb - 0.00 in0.0 mm 0.02 in0.5 mm
07:10 PM 47.0°F8.3°C 42.7°F5.9°C 85% 8.1 mph NE13.0 kmh NE 11.5 mph18.5 kmh 30.59 in1035.9 mb - 0.00 in0.0 mm 0.02 in0.5 mm
07:20 PM 47.0°F8.3°C 42.7°F5.9°C 85% 11.5 mph NE18.5 kmh NE 20.7 mph33.3 kmh 30.59 in1035.9 mb - 0.00 in0.0 mm 0.02 in0.5 mm
07:30 PM 47.0°F8.3°C 42.7°F5.9°C 85% 10.4 mph NE16.7 kmh NE 10.4 mph16.7 kmh 30.60 in1036.2 mb - 0.00 in0.0 mm 0.02 in0.5 mm
07:40 PM 47.0°F8.3°C 42.7°F5.9°C 85% 5.8 mph NE9.3 kmh NE 8.1 mph13.0 kmh 30.60 in1036.2 mb - 0.00 in0.0 mm 0.02 in0.5 mm
07:50 PM 46.9°F8.3°C 42.9°F6.1°C 86% 6.9 mph ENE11.1 kmh ENE 10.4 mph16.7 kmh 30.60 in1036.2 mb - 0.00 in0.0 mm 0.02 in0.5 mm
08:00 PM 46.8°F8.2°C 42.8°F6.0°C 86% 8.1 mph NE13.0 kmh NE 9.2 mph14.8 kmh 30.60 in1036.2 mb - 0.00 in0.0 mm 0.02 in0.5 mm
08:10 PM 46.9°F8.3°C 42.9°F6.1°C 86% 6.9 mph NE11.1 kmh NE 9.2 mph14.8 kmh 30.61 in1036.6 mb - 0.00 in0.0 mm 0.02 in0.5 mm
08:20 PM 46.9°F8.3°C 42.9°F6.1°C 86% 9.2 mph NE14.8 kmh NE 11.5 mph18.5 kmh 30.61 in1036.6 mb - 0.00 in0.0 mm 0.02 in0.5 mm
08:30 PM 47.0°F8.3°C 43.0°F6.1°C 86% 8.1 mph NE13.0 kmh NE 10.4 mph16.7 kmh 30.61 in1036.6 mb - 0.00 in0.0 mm 0.02 in0.5 mm
08:40 PM 47.0°F8.3°C 43.0°F6.1°C 86% 6.9 mph NE11.1 kmh NE 9.2 mph14.8 kmh 30.61 in1036.6 mb - 0.00 in0.0 mm 0.02 in0.5 mm
08:50 PM 47.0°F8.3°C 43.0°F6.1°C 86% 8.1 mph ENE13.0 kmh ENE 9.2 mph14.8 kmh 30.61 in1036.6 mb - 0.00 in0.0 mm 0.02 in0.5 mm
09:00 PM 46.9°F8.3°C 43.3°F6.3°C 87% 5.8 mph NE9.3 kmh NE 8.1 mph13.0 kmh 30.61 in1036.6 mb - 0.00 in0.0 mm 0.02 in0.5 mm
09:10 PM 46.9°F8.3°C 43.2°F6.2°C 87% 4.6 mph ENE7.4 kmh ENE 8.1 mph13.0 kmh 30.61 in1036.6 mb - 0.00 in0.0 mm 0.02 in0.5 mm
09:20 PM 46.9°F8.3°C 43.2°F6.2°C 87% 4.6 mph NE7.4 kmh NE 5.8 mph9.3 kmh 30.61 in1036.6 mb - 0.00 in0.0 mm 0.02 in0.5 mm
09:30 PM 47.0°F8.3°C 43.3°F6.3°C 87% 8.1 mph NE13.0 kmh NE 13.8 mph22.2 kmh 30.61 in1036.6 mb - 0.00 in0.0 mm 0.02 in0.5 mm
09:40 PM 47.2°F8.4°C 43.5°F6.4°C 87% 11.5 mph NE18.5 kmh NE 11.5 mph18.5 kmh 30.61 in1036.6 mb - 0.00 in0.0 mm 0.02 in0.5 mm
09:50 PM 47.2°F8.4°C 43.2°F6.2°C 86% 8.1 mph NE13.0 kmh NE 10.4 mph16.7 kmh 30.61 in1036.6 mb - 0.00 in0.0 mm 0.02 in0.5 mm
10:00 PM 47.1°F8.4°C 43.2°F6.2°C 86% 6.9 mph NE11.1 kmh NE 10.4 mph16.7 kmh 30.61 in1036.6 mb - 0.00 in0.0 mm 0.02 in0.5 mm
10:10 PM 47.2°F8.4°C 43.2°F6.2°C 86% 6.9 mph NE11.1 kmh NE 10.4 mph16.7 kmh 30.61 in1036.6 mb - 0.00 in0.0 mm 0.02 in0.5 mm
10:20 PM 47.2°F8.4°C 43.2°F6.2°C 86% 8.1 mph NE13.0 kmh NE 10.4 mph16.7 kmh 30.61 in1036.6 mb - 0.00 in0.0 mm 0.02 in0.5 mm
10:30 PM 47.2°F8.4°C 43.2°F6.2°C 86% 9.2 mph NE14.8 kmh NE 11.5 mph18.5 kmh 30.61 in1036.6 mb - 0.00 in0.0 mm 0.02 in0.5 mm
10:40 PM 47.3°F8.5°C 43.3°F6.3°C 86% 6.9 mph NE11.1 kmh NE 9.2 mph14.8 kmh 30.61 in1036.6 mb - 0.00 in0.0 mm 0.02 in0.5 mm
10:50 PM 47.4°F8.6°C 43.4°F6.3°C 86% 2.3 mph ENE3.7 kmh ENE 5.8 mph9.3 kmh 30.61 in1036.6 mb - 0.00 in0.0 mm 0.02 in0.5 mm
11:10 PM 47.4°F8.6°C 43.7°F6.5°C 87% 8.1 mph NE13.0 kmh NE 10.4 mph16.7 kmh 30.61 in1036.6 mb - 0.00 in0.0 mm 0.02 in0.5 mm
11:20 PM 47.4°F8.6°C 43.7°F6.5°C 87% 8.1 mph NE13.0 kmh NE 10.4 mph16.7 kmh 30.61 in1036.6 mb - 0.00 in0.0 mm 0.02 in0.5 mm
11:30 PM 47.5°F8.6°C 43.8°F6.6°C 87% 4.6 mph NE7.4 kmh NE 6.9 mph11.1 kmh 30.61 in1036.6 mb - 0.00 in0.0 mm 0.02 in0.5 mm
11:40 PM 47.5°F8.6°C 43.8°F6.6°C 87% 1.1 mph NE1.8 kmh NE 3.5 mph5.6 kmh 30.62 in1036.9 mb - 0.00 in0.0 mm 0.02 in0.5 mm
11:50 PM 47.4°F8.6°C 43.7°F6.5°C 87% 4.6 mph E7.4 kmh E 6.9 mph11.1 kmh 30.61 in1036.6 mb - 0.00 in0.0 mm 0.02 in0.5 mm